Data for 10/13/2013

Time Sea-Level Adjusted Pressure Absolute Pressure Temperature Relative Humidity Dew Point   
(mb) (inHg) (mb) (inHg) (C) (F) (%) (C) (F)
00:05 1020 30.12 849 25.07 3.5 38.3 76 -0.4 31.4
00:10 1020 30.12 849 25.07 3.6 38.4 76 -0.3 31.4
00:15 1020 30.12 849 25.07 3.6 38.5 75 -0.3 31.4
00:20 1020 30.12 849 25.07 3.6 38.5 75 -0.4 31.4
00:25 1020 30.12 849 25.07 3.6 38.5 76 -0.3 31.4
00:30 1020 30.12 849 25.07 3.6 38.4 76 -0.3 31.4
00:35 1020 30.12 849 25.07 3.5 38.3 76 -0.4 31.4
00:40 1020 30.12 849 25.07 3.5 38.2 76 -0.4 31.3
00:45 1020 30.12 849 25.07 3.5 38.3 76 -0.3 31.4
00:50 1020 30.12 849 25.07 3.5 38.3 76 -0.3 31.4
00:55 1020 30.12 849 25.07 3.5 38.2 76 -0.3 31.4
01:00 1020 30.12 849 25.07 3.4 38.2 76 -0.4 31.3
01:05 1020 30.12 849 25.07 3.4 38.2 76 -0.4 31.4
01:10 1020 30.12 849 25.07 3.4 38.1 76 -0.4 31.4
01:15 1020 30.12 849 25.07 3.4 38 77 -0.4 31.4
01:20 1020 30.12 849 25.07 3.3 37.9 76 -0.5 31.2
01:25 1020 30.12 849 25.07 3.2 37.8 76 -0.5 31.1
01:30 1020 30.12 849 25.07 3.4 38 75 -0.6 30.9
01:35 1020 30.12 850 25.1 3.4 38.2 75 -0.5 31.1
01:40 1020 30.12 850 25.1 3.4 38.1 75 -0.5 31
01:45 1020 30.12 850 25.1 3.3 37.9 77 -0.4 31.2
01:50 1021 30.15 850 25.1 3.2 37.7 77 -0.5 31.2
01:55 1021 30.15 850 25.1 3.1 37.6 77 -0.5 31.1
02:00 1021 30.15 850 25.1 3 37.5 77 -0.6 30.9
02:05 1021 30.15 850 25.1 3.1 37.5 77 -0.6 30.9
02:10 1021 30.15 850 25.1 3.1 37.6 76 -0.7 30.8
02:15 1021 30.15 850 25.1 3.1 37.5 77 -0.7 30.8
02:20 1021 30.15 850 25.1 2.9 37.3 78 -0.6 30.9
02:25 1021 30.15 850 25.1 2.9 37.2 78 -0.6 30.9
02:30 1020 30.12 850 25.1 3 37.4 78 -0.5 31.1
02:35 1021 30.15 850 25.1 3.1 37.6 77 -0.5 31
02:40 1021 30.15 850 25.1 3.1 37.7 77 -0.5 31.2
02:45 1020 30.12 850 25.1 3 37.5 78 -0.4 31.3
02:50 1020 30.12 850 25.1 2.7 36.9 79 -0.5 31.1
02:55 1020 30.12 850 25.1 2.5 36.5 79 -0.8 30.6
03:00 1020 30.12 850 25.1 2.5 36.4 79 -0.8 30.5
03:05 1020 30.12 850 25.1 2.5 36.4 78 -1 30.3
03:10 1020 30.12 850 25.1 2.7 36.8 77 -1 30.2
03:15 1020 30.12 849 25.07 3 37.5 75 -0.9 30.4
03:20 1020 30.12 849 25.07 3.1 37.5 76 -0.8 30.6
03:25 1020 30.12 849 25.07 2.9 37.2 76 -0.9 30.4
03:30 1020 30.12 849 25.07 2.7 36.9 77 -0.9 30.4
03:35 1020 30.12 849 25.07 2.8 37 76 -1 30.2
03:40 1020 30.12 849 25.07 2.8 37.1 77 -0.8 30.5
03:45 1020 30.12 850 25.1 2.5 36.6 78 -1 30.2
03:50 1020 30.12 850 25.1 2.2 35.9 78 -1.3 29.7
03:55 1020 30.12 850 25.1 2.3 36.1 77 -1.3 29.6
04:00 1020 30.12 849 25.07 2.3 36.1 77 -1.3 29.7
04:05 1020 30.12 849 25.07 2.2 35.9 78 -1.3 29.7
04:10 1020 30.12 849 25.07 2 35.7 78 -1.3 29.6
04:15 1020 30.12 849 25.07 1.9 35.4 79 -1.3 29.6
04:20 1020 30.12 849 25.07 1.9 35.4 79 -1.3 29.7
04:25 1020 30.12 849 25.07 2 35.5 80 -1.1 30
04:30 1020 30.12 849 25.07 2.1 35.7 80 -1.1 30.1
04:35 1020 30.12 849 25.07 2.3 36.1 79 -1.1 30.1
04:40 1020 30.12 849 25.07 2.6 36.6 78 -0.9 30.3
04:45 1020 30.12 849 25.07 2.7 36.9 78 -0.8 30.5
04:50 1020 30.12 849 25.07 2.7 36.9 77 -0.9 30.4
04:55 1020 30.12 849 25.07 2.7 36.8 78 -0.8 30.5
05:00 1020 30.12 849 25.07 2.6 36.7 78 -0.9 30.4
05:05 1020 30.12 850 25.1 2.5 36.5 78 -0.9 30.3
05:10 1020 30.12 850 25.1 2.5 36.4 78 -0.9 30.4
05:15 1020 30.12 849 25.07 2.4 36.4 79 -0.9 30.4
05:20 1020 30.12 849 25.07 2.5 36.4 78 -0.9 30.3
05:25 1020 30.12 849 25.07 2.4 36.4 79 -0.9 30.3
05:30 1020 30.12 850 25.1 2.4 36.4 79 -0.9 30.3
05:35 1020 30.12 850 25.1 2.4 36.3 78 -1 30.1
05:40 1020 30.12 850 25.1 2.3 36.2 78 -1 30.1
05:45 1020 30.12 850 25.1 2.3 36.2 78 -1.1 30
05:50 1020 30.12 850 25.1 2.4 36.3 78 -1.1 30
05:55 1020 30.12 850 25.1 2.3 36.2 78 -1 30.1
06:00 1020 30.12 850 25.1 2.3 36.1 78 -1.1 30.1
06:05 1020 30.12 850 25.1 2.3 36.1 78 -1.1 30
06:10 1020 30.12 850 25.1 2.2 36 79 -1.1 30
06:15 1020 30.12 850 25.1 2.2 35.9 79 -1.1 30.1
06:20 1021 30.15 850 25.1 1.9 35.5 80 -1.2 29.9
06:25 1021 30.15 850 25.1 1.9 35.3 79 -1.4 29.6
06:30 1020 30.12 850 25.1 1.9 35.5 79 -1.4 29.5
06:35 1020 30.12 850 25.1 1.9 35.5 78 -1.4 29.4
06:40 1020 30.12 850 25.1 1.9 35.5 79 -1.4 29.5
06:45 1020 30.12 850 25.1 1.9 35.5 78 -1.5 29.3
06:50 1021 30.15 850 25.1 2 35.6 77 -1.5 29.2
06:55 1021 30.15 850 25.1 2 35.7 77 -1.5 29.3
07:00 1020 30.12 850 25.1 2 35.7 77 -1.6 29.2
07:05 1021 30.15 850 25.1 2 35.7 77 -1.6 29.2
07:10 1021 30.15 850 25.1 2 35.6 77 -1.7 29
07:15 1021 30.15 850 25.1 2 35.6 76 -1.7 29
07:20 1021 30.15 850 25.1 2.1 35.7 76 -1.8 28.8
07:25 1021 30.15 850 25.1 2.1 35.8 76 -1.7 28.9
07:30 1021 30.15 850 25.1 2.1 35.8 76 -1.7 28.9
07:35 1021 30.15 850 25.1 2 35.6 76 -1.7 28.9
07:40 1021 30.15 850 25.1 2 35.6 76 -1.9 28.6
07:45 1021 30.15 850 25.1 2 35.6 75 -1.9 28.5
07:50 1021 30.15 850 25.1 2 35.7 75 -2 28.5
07:55 1021 30.15 850 25.1 2 35.7 76 -1.8 28.7
08:00 1021 30.15 850 25.1 2 35.7 75 -1.9 28.6
08:05 1021 30.15 850 25.1 2 35.5 78 -1.5 29.3
08:10 1021 30.15 850 25.1 1.8 35.2 78 -1.7 28.9
08:15 1021 30.15 850 25.1 1.8 35.3 78 -1.6 29.1
08:20 1021 30.15 850 25.1 1.8 35.2 78 -1.7 28.9
08:25 1021 30.15 850 25.1 1.8 35.2 79 -1.5 29.4
08:30 1021 30.15 850 25.1 1.6 34.9 80 -1.5 29.3
08:35 1021 30.15 850 25.1 1.7 35 81 -1.2 29.9
08:40 1021 30.15 850 25.1 1.7 35.1 79 -1.5 29.3
08:45 1021 30.15 850 25.1 1.7 35 79 -1.5 29.2
08:50 1021 30.15 850 25.1 1.5 34.8 79 -1.7 29
08:55 1021 30.15 850 25.1 1.6 34.9 80 -1.5 29.3
09:00 1021 30.15 850 25.1 1.6 34.9 80 -1.4 29.4
09:05 1021 30.15 850 25.1 1.6 35 79 -1.6 29
09:10 1021 30.15 850 25.1 1.7 35.1 79 -1.6 29.2
09:15 1021 30.15 850 25.1 1.8 35.3 78 -1.5 29.2
09:20 1021 30.15 850 25.1 1.8 35.2 80 -1.3 29.6
09:25 1021 30.15 850 25.1 1.5 34.7 81 -1.4 29.5
09:30 1021 30.15 850 25.1 1.3 34.3 82 -1.5 29.4
09:35 1021 30.15 850 25.1 1.3 34.3 81 -1.6 29.1
09:40 1021 30.15 850 25.1 1.3 34.3 81 -1.6 29.1
09:45 1021 30.15 850 25.1 1.5 34.7 81 -1.5 29.4
09:50 1021 30.15 850 25.1 1.7 35 79 -1.6 29.1
09:55 1021 30.15 850 25.1 1.8 35.3 79 -1.5 29.4
10:00 1021 30.15 850 25.1 1.9 35.5 78 -1.5 29.4
10:05 1021 30.15 850 25.1 2 35.7 77 -1.5 29.3
10:10 1021 30.15 850 25.1 2.4 36.3 75 -1.6 29.2
10:15 1021 30.15 850 25.1 2.6 36.7 76 -1.2 29.8
10:20 1021 30.15 850 25.1 2.6 36.7 75 -1.4 29.5
10:25 1021 30.15 850 25.1 3 37.4 74 -1.2 29.8
10:30 1021 30.15 850 25.1 3.1 37.6 73 -1.2 29.8
10:35 1021 30.15 850 25.1 3.4 38 71 -1.3 29.6
10:40 1021 30.15 850 25.1 3.6 38.5 69 -1.5 29.3
10:45 1021 30.15 850 25.1 3.9 39.1 69 -1.3 29.6
10:50 1021 30.15 850 25.1 3.9 39 67 -1.6 29.1
10:55 1021 30.15 850 25.1 3.8 38.9 69 -1.4 29.6
11:00 1021 30.15 850 25.1 3.9 39 69 -1.2 29.9
11:05 1021 30.15 850 25.1 3.6 38.5 71 -1.1 30.1
11:10 1021 30.15 850 25.1 3.6 38.5 70 -1.4 29.5
11:15 1021 30.15 850 25.1 3.8 38.9 70 -1.2 29.9
11:20 1021 30.15 850 25.1 3.9 38.9 71 -0.9 30.4
11:25 1021 30.15 850 25.1 3.8 38.8 71 -0.9 30.3
11:30 1021 30.15 850 25.1 3.6 38.4 72 -1 30.2
11:35 1021 30.15 850 25.1 3.6 38.4 74 -0.7 30.8
11:40 1021 30.15 850 25.1 3.6 38.5 73 -0.7 30.7
11:45 1021 30.15 850 25.1 3.5 38.4 75 -0.4 31.2
11:50 1021 30.15 850 25.1 3.8 38.8 74 -0.5 31.1
11:55 1021 30.15 850 25.1 3.9 39 74 -0.3 31.4
12:00 1021 30.15 850 25.1 3.6 38.4 77 -0.1 31.9
12:05 1020 30.12 850 25.1 3.7 38.6 79 0.4 32.6
12:10 1020 30.12 850 25.1 3.5 38.3 79 0.2 32.4
12:15 1020 30.12 850 25.1 3.1 37.6 80 0.1 32.1
12:20 1020 30.12 850 25.1 3.1 37.6 81 0.2 32.4
12:25 1020 30.12 850 25.1 3 37.4 80 -0.1 31.8
12:30 1020 30.12 850 25.1 3.1 37.6 80 0.1 32.1
12:35 1020 30.12 849 25.07 3.1 37.6 82 0.3 32.5
12:40 1020 30.12 849 25.07 3.1 37.5 81 0.1 32.2
12:45 1020 30.12 849 25.07 2.9 37.2 82 0.1 32.1
12:50 1020 30.12 849 25.07 2.9 37.2 82 0.1 32.2
12:55 1020 30.12 849 25.07 2.7 36.9 82 -0.1 31.7
13:00 1020 30.12 849 25.07 2.6 36.8 82 -0.1 31.8
13:05 1020 30.12 849 25.07 2.5 36.6 84 0.1 32.2
13:10 1020 30.12 849 25.07 2.4 36.3 85 0.2 32.3
13:15 1020 30.12 849 25.07 2 35.6 87 0.1 32.3
13:20 1020 30.12 849 25.07 1.8 35.2 88 0 32
13:25 1020 30.12 849 25.07 1.8 35.2 89 0.1 32.2
13:30 1020 30.12 849 25.07 1.8 35.2 90 0.3 32.5
13:35 1020 30.12 849 25.07 1.7 35.1 89 0 32
13:40 1020 30.12 849 25.07 1.6 34.9 89 0.1 32.1
13:45 1020 30.12 849 25.07 1.5 34.8 90 0.1 32.1
13:50 1020 30.12 849 25.07 1.4 34.6 90 0 32.1
13:55 1020 30.12 849 25.07 1.3 34.4 91 0 32.1
14:00 1020 30.12 849 25.07 1.3 34.4 92 0.1 32.1
14:05 1020 30.12 849 25.07 1.2 34.2 92 0 32.1
14:10 1020 30.12 849 25.07 1 33.9 92 -0.1 31.8
14:15 1020 30.12 849 25.07 0.9 33.7 93 -0.1 31.9
14:20 1020 30.12 849 25.07 0.9 33.6 93 -0.1 31.9
14:25 1020 30.12 849 25.07 0.9 33.6 94 -0 32
14:30 1020 30.12 849 25.07 0.9 33.6 94 -0.1 31.9
14:35 1020 30.12 849 25.07 0.8 33.5 94 -0.1 31.9
14:40 1020 30.12 849 25.07 0.8 33.5 94 -0 32
14:45 1020 30.12 849 25.07 0.9 33.6 94 0.1 32.1
14:50 1020 30.12 849 25.07 1.1 33.9 94 0.2 32.3
14:55 1020 30.12 849 25.07 1 33.8 93 -0 32
15:00 1020 30.12 850 25.1 0.9 33.7 93 -0 32
15:05 1020 30.12 850 25.1 0.9 33.7 93 -0 32
15:10 1020 30.12 850 25.1 1.1 33.9 93 0.1 32.2
15:15 1020 30.12 850 25.1 1.1 34 94 0.2 32.3
15:20 1020 30.12 850 25.1 1.1 34 94 0.2 32.4
15:25 1020 30.12 850 25.1 1.1 34 94 0.2 32.4
15:30 1020 30.12 850 25.1 1.2 34.2 93 0.3 32.5
15:35 1021 30.15 850 25.1 1.2 34.1 93 0.2 32.4
15:40 1021 30.15 850 25.1 1.2 34.1 94 0.3 32.6
15:45 1021 30.15 850 25.1 1.1 34 94 0.2 32.4
15:50 1021 30.15 850 25.1 1.1 34 94 0.3 32.5
15:55 1021 30.15 850 25.1 0.9 33.7 94 0 32.1
16:00 1021 30.15 850 25.1 0.9 33.6 94 0.1 32.2
16:05 1021 30.15 850 25.1 1 33.8 94 0.2 32.3
16:10 1021 30.15 850 25.1 1 33.8 94 0.2 32.4
16:15 1021 30.15 850 25.1 1.1 33.9 94 0.2 32.4
16:20 1021 30.15 850 25.1 1 33.7 94 0.1 32.3
16:25 1021 30.15 850 25.1 0.9 33.6 94 0.1 32.2
16:30 1021 30.15 850 25.1 1 33.8 95 0.2 32.4
16:35 1021 30.15 850 25.1 0.9 33.7 94 0.1 32.2
16:40 1021 30.15 850 25.1 0.9 33.5 94 0 32.1
16:45 1021 30.15 850 25.1 0.8 33.4 95 0 32
16:50 1021 30.15 850 25.1 0.9 33.6 95 0.1 32.2
16:55 1021 30.15 850 25.1 0.9 33.7 95 0.2 32.4
17:00 1021 30.15 850 25.1 0.9 33.7 95 0.2 32.3
17:05 1021 30.15 850 25.1 0.9 33.7 94 0.2 32.3
17:10 1021 30.15 850 25.1 0.8 33.4 94 -0 32
17:15 1021 30.15 850 25.1 0.8 33.5 95 0.1 32.1
17:20 1021 30.15 850 25.1 0.8 33.5 95 0.1 32.2
17:25 1021 30.15 850 25.1 0.8 33.5 95 0.1 32.2
17:30 1021 30.15 850 25.1 0.8 33.4 95 0.1 32.1
17:35 1021 30.15 851 25.13 0.8 33.4 95 0.1 32.2
17:40 1021 30.15 851 25.13 0.8 33.5 95 0.1 32.2
17:45 1021 30.15 851 25.13 0.9 33.6 95 0.2 32.4
17:50 1021 30.15 851 25.13 0.8 33.4 95 0.1 32.1
17:55 1021 30.15 851 25.13 0.7 33.3 95 0 32
18:00 1021 30.15 851 25.13 0.7 33.3 95 0.1 32.1
18:05 1022 30.18 851 25.13 0.8 33.5 95 0.2 32.3
18:10 1022 30.18 851 25.13 0.9 33.6 95 0.2 32.4
18:15 1022 30.18 851 25.13 0.9 33.5 95 0.2 32.3
18:20 1022 30.18 851 25.13 0.8 33.4 95 0.1 32.2
18:25 1022 30.18 851 25.13 0.8 33.4 95 0.1 32.1
18:30 1022 30.18 851 25.13 0.8 33.4 95 0.1 32.2
18:35 1022 30.18 851 25.13 0.9 33.6 95 0.2 32.3
18:40 1022 30.18 851 25.13 0.9 33.7 94 0.1 32.1
18:45 1022 30.18 851 25.13 1 33.8 94 0.1 32.2
18:50 1022 30.18 851 25.13 1.1 33.9 94 0.2 32.3
18:55 1022 30.18 851 25.13 1.1 34 94 0.2 32.3
19:00 1022 30.18 851 25.13 1.1 34 93 0.2 32.3
19:05 1022 30.18 851 25.13 1.1 34 93 0.2 32.3
19:10 1022 30.18 851 25.13 1.1 33.9 93 0.1 32.2
19:15 1022 30.18 851 25.13 1.1 33.9 93 0.1 32.2
19:20 1022 30.18 851 25.13 1.1 34 93 0.2 32.3
19:25 1022 30.18 851 25.13 1.2 34.1 94 0.2 32.4
19:30 1022 30.18 851 25.13 1.2 34.1 93 0.2 32.4
19:35 1022 30.18 851 25.13 1.1 34.1 93 0.1 32.2
19:40 1022 30.18 851 25.13 1.2 34.1 93 0.1 32.2
19:45 1022 30.18 851 25.13 1.2 34.2 93 0.2 32.4
19:50 1022 30.18 851 25.13 1.2 34.2 93 0.3 32.5
19:55 1022 30.18 851 25.13 1.2 34.2 93 0.3 32.5
20:00 1022 30.18 851 25.13 1.3 34.3 93 0.3 32.5
20:05 1022 30.18 851 25.13 1.3 34.4 92 0.1 32.2
20:10 1022 30.18 851 25.13 1.4 34.5 92 0.2 32.3
20:15 1022 30.18 851 25.13 1.4 34.5 92 0.2 32.4
20:20 1022 30.18 851 25.13 1.4 34.5 92 0.2 32.4
20:25 1022 30.18 851 25.13 1.4 34.4 92 0.2 32.4
20:30 1022 30.18 851 25.13 1.3 34.4 92 0.2 32.4
20:35 1022 30.18 851 25.13 1.4 34.5 92 0.2 32.3
20:40 1022 30.18 851 25.13 1.4 34.5 92 0.2 32.4
20:45 1022 30.18 851 25.13 1.4 34.4 92 0.3 32.5
20:50 1022 30.18 851 25.13 1.4 34.4 92 0.2 32.4
20:55 1022 30.18 852 25.16 1.4 34.4 93 0.3 32.5
21:00 1022 30.18 852 25.16 1.3 34.4 92 0.2 32.4
21:05 1022 30.18 852 25.16 1.4 34.6 93 0.4 32.7
21:10 1022 30.18 852 25.16 1.5 34.6 93 0.5 32.8
21:15 1022 30.18 852 25.16 1.5 34.7 93 0.5 32.9
21:20 1022 30.18 852 25.16 1.5 34.8 93 0.5 32.9
21:25 1023 30.21 852 25.16 1.6 34.8 92 0.5 32.8
21:30 1023 30.21 852 25.16 1.6 34.9 92 0.5 32.8
21:35 1023 30.21 852 25.16 1.7 35 93 0.6 33.1
21:40 1023 30.21 852 25.16 1.5 34.8 93 0.6 33
21:45 1023 30.21 852 25.16 1.4 34.6 93 0.4 32.7
21:50 1023 30.21 852 25.16 1.4 34.5 92 0.3 32.6
21:55 1023 30.21 852 25.16 1.4 34.6 92 0.3 32.6
22:00 1023 30.21 852 25.16 1.5 34.6 92 0.3 32.6
22:05 1023 30.21 852 25.16 1.5 34.6 92 0.3 32.6
22:10 1023 30.21 852 25.16 1.5 34.7 92 0.4 32.7
22:15 1023 30.21 852 25.16 1.5 34.7 92 0.4 32.7
22:20 1023 30.21 852 25.16 1.5 34.7 92 0.4 32.7
22:25 1023 30.21 852 25.16 1.5 34.7 93 0.5 32.8
22:30 1023 30.21 852 25.16 1.5 34.8 93 0.5 32.9
22:35 1023 30.21 852 25.16 1.4 34.6 93 0.4 32.8
22:40 1023 30.21 852 25.16 1.3 34.3 94 0.4 32.7
22:45 1023 30.21 852 25.16 1.2 34.2 94 0.3 32.6
22:50 1023 30.21 852 25.16 1.1 33.9 94 0.2 32.3
22:55 1023 30.21 852 25.16 1 33.7 94 0.1 32.3
23:00 1023 30.21 852 25.16 1 33.8 94 0.2 32.4
23:05 1023 30.21 852 25.16 1 33.8 94 0.2 32.3
23:10 1023 30.21 852 25.16 0.9 33.7 94 0.1 32.2
23:15 1023 30.21 852 25.16 0.9 33.6 94 0.1 32.2
23:20 1022 30.18 852 25.16 0.9 33.6 94 0 32.1
23:25 1022 30.18 852 25.16 0.9 33.6 95 0.1 32.2
23:30 1022 30.18 852 25.16 1 33.7 94 0.2 32.3
23:35 1022 30.18 852 25.16 0.9 33.7 94 0.1 32.2
23:40 1023 30.21 852 25.16 0.9 33.7 94 0.1 32.2
23:45 1023 30.21 852 25.16 1 33.7 94 0.1 32.2
23:50 1023 30.21 852 25.16 1 33.8 94 0.1 32.3
23:55 1023 30.21 852 25.16 1 33.8 94 0.2 32.3
24:00 1023 30.21 852 25.16 1.1 33.9 94 0.2 32.4